createdAt,value
2022-12-20T00:03:53.729Z,424.20
2022-12-20T00:08:52.067Z,423.50
2022-12-20T00:13:51.391Z,440.40
2022-12-20T00:18:50.514Z,413.60
2022-12-20T00:23:50.819Z,383.50
2022-12-20T00:28:50.129Z,433.70
2022-12-20T00:33:48.456Z,431.20
2022-12-20T00:38:47.768Z,391.90
2022-12-20T00:43:48.093Z,376.40
2022-12-20T00:48:45.372Z,380.50
2022-12-20T00:53:46.666Z,420.50
2022-12-20T00:58:44.981Z,364.80
2022-12-20T01:03:44.327Z,435.60
2022-12-20T01:08:43.441Z,413.90
2022-12-20T01:13:42.749Z,404.50
2022-12-20T01:18:41.050Z,428.80
2022-12-20T01:23:41.383Z,398.70
2022-12-20T01:28:40.769Z,397.50
2022-12-20T01:33:40.962Z,416.60
2022-12-20T01:38:39.059Z,441.30
2022-12-20T01:43:39.260Z,422.80
2022-12-20T01:48:37.440Z,409.90
2022-12-20T01:53:36.596Z,427.00
2022-12-20T01:58:36.805Z,420.70
2022-12-20T02:03:35.008Z,410.60
2022-12-20T02:08:34.196Z,420.30
2022-12-20T02:13:35.332Z,413.00
2022-12-20T02:18:32.637Z,427.70
2022-12-20T02:23:31.974Z,405.20
2022-12-20T02:28:30.183Z,412.10
2022-12-20T02:33:30.368Z,402.90
2022-12-20T02:38:29.506Z,428.20
2022-12-20T02:43:29.676Z,397.70
2022-12-20T02:48:28.788Z,411.20
2022-12-20T02:53:27.136Z,448.70
2022-12-20T02:58:27.260Z,423.00
2022-12-20T03:03:25.705Z,413.50
2022-12-20T03:08:24.885Z,408.40
2022-12-20T03:13:25.209Z,401.70
2022-12-20T03:18:24.350Z,420.40
2022-12-20T03:23:22.693Z,407.70
2022-12-20T03:28:21.844Z,438.70
2022-12-20T03:33:21.169Z,406.20
2022-12-20T03:38:20.518Z,399.60
2022-12-20T03:43:20.646Z,395.00
2022-12-20T03:48:18.956Z,425.80
2022-12-20T03:53:19.261Z,406.60
2022-12-20T03:58:17.591Z,412.50
2022-12-20T04:03:17.083Z,440.00
2022-12-20T04:08:16.051Z,414.10
2022-12-20T04:13:15.362Z,407.00
2022-12-20T04:18:15.652Z,408.00
2022-12-20T04:23:14.967Z,436.50
2022-12-20T04:28:13.281Z,421.00
2022-12-20T04:33:12.664Z,425.40
2022-12-20T04:38:11.795Z,428.40
2022-12-20T04:43:12.123Z,442.20
2022-12-20T04:48:46.276Z,418.10
2022-12-20T04:53:10.580Z,436.10
2022-12-20T04:58:09.892Z,426.90
2022-12-20T05:03:09.343Z,388.40
2022-12-20T05:08:07.537Z,442.10
2022-12-20T05:13:09.466Z,408.50
2022-12-20T05:18:05.909Z,428.50
2022-12-20T05:23:05.236Z,413.20
2022-12-20T05:28:04.546Z,413.90
2022-12-20T05:33:05.689Z,419.40
2022-12-20T05:38:04.005Z,420.50
2022-12-20T05:43:02.331Z,432.20
2022-12-20T05:48:01.449Z,415.60
2022-12-20T05:53:04.632Z,375.00
2022-12-20T05:58:00.032Z,393.60
2022-12-20T06:03:00.371Z,215.90
2022-12-20T06:07:59.383Z,222.60
2022-12-20T06:12:57.706Z,221.00
2022-12-20T06:17:57.856Z,220.50
2022-12-20T06:22:57.248Z,220.40
2022-12-20T06:27:56.377Z,220.20
2022-12-20T06:32:54.515Z,220.20
2022-12-20T06:37:54.842Z,285.80
2022-12-20T06:42:54.202Z,399.40
2022-12-20T06:47:52.330Z,390.10
2022-12-20T06:52:52.495Z,421.60
2022-12-20T06:57:51.628Z,368.20
2022-12-20T07:02:51.080Z,379.20
2022-12-20T07:07:49.079Z,385.70
2022-12-20T07:12:48.762Z,417.10
2022-12-20T07:17:47.547Z,430.10
2022-12-20T07:22:46.886Z,434.40
2022-12-20T07:27:45.077Z,425.40
2022-12-20T07:32:46.259Z,427.50
2022-12-20T07:37:44.432Z,427.50
2022-12-20T07:42:48.458Z,427.50
2022-12-20T07:47:42.810Z,427.50
2022-12-20T07:52:42.076Z,427.50
2022-12-20T07:57:41.378Z,427.50
2022-12-20T08:02:41.810Z,411.00
2022-12-20T08:07:39.889Z,421.30
2022-12-20T08:12:39.023Z,416.80
2022-12-20T08:17:38.187Z,408.60
2022-12-20T08:22:37.435Z,402.70
2022-12-20T08:27:36.554Z,409.50
2022-12-20T08:32:34.913Z,401.70
2022-12-20T08:37:35.046Z,462.90
2022-12-20T08:42:35.420Z,446.30
2022-12-20T08:47:33.497Z,425.80
2022-12-20T08:52:32.893Z,413.30
2022-12-20T08:57:32.037Z,414.10
2022-12-20T09:02:31.230Z,395.90
2022-12-20T09:07:30.410Z,405.00
2022-12-20T09:12:30.728Z,387.40
2022-12-20T09:17:29.002Z,404.20
2022-12-20T09:22:28.334Z,424.20
2022-12-20T09:27:29.674Z,386.60
2022-12-20T09:32:27.973Z,395.10
2022-12-20T09:37:25.301Z,393.30
2022-12-20T09:42:25.489Z,400.20
2022-12-20T09:47:25.609Z,383.90
2022-12-20T09:52:24.928Z,404.90
2022-12-20T09:57:24.223Z,395.40
2022-12-20T10:07:22.731Z,406.20
2022-12-20T10:12:22.048Z,421.00
2022-12-20T10:17:21.362Z,412.30
2022-12-20T10:22:20.665Z,291.00
2022-12-20T10:27:18.984Z,394.90
2022-12-20T10:32:18.287Z,439.40
2022-12-20T10:37:18.611Z,417.80
2022-12-20T10:42:17.951Z,443.10
2022-12-20T10:47:16.060Z,418.20
2022-12-20T10:52:17.376Z,390.60
2022-12-20T10:57:15.131Z,405.60
2022-12-20T11:02:16.150Z,415.90
2022-12-20T11:07:12.166Z,390.10
2022-12-20T11:12:12.492Z,409.00
2022-12-20T11:17:12.632Z,418.40
2022-12-20T11:22:10.771Z,411.10
2022-12-20T11:27:15.427Z,410.20
2022-12-20T11:32:09.178Z,411.90
2022-12-20T11:37:09.352Z,417.70
2022-12-20T11:42:07.474Z,436.70
2022-12-20T11:47:06.682Z,442.80
2022-12-20T11:52:06.890Z,283.90
2022-12-20T11:57:05.020Z,-158.30
2022-12-20T12:02:05.399Z,-42.20
2022-12-20T12:07:02.615Z,154.20
2022-12-20T12:12:07.209Z,489.00
2022-12-20T12:17:02.044Z,380.60
2022-12-20T12:22:03.134Z,392.20
2022-12-20T12:27:02.463Z,405.30
2022-12-20T12:32:00.790Z,386.50
2022-12-20T12:37:00.987Z,425.60
2022-12-20T12:41:58.278Z,428.30
2022-12-20T12:46:57.625Z,410.00
2022-12-20T12:51:57.763Z,395.50
2022-12-20T12:56:57.070Z,423.70
2022-12-20T13:01:55.517Z,408.90
2022-12-20T13:06:55.754Z,286.10
2022-12-20T13:12:01.085Z,276.10
2022-12-20T13:17:26.135Z,327.40
2022-12-20T13:21:52.232Z,377.30
2022-12-20T13:26:52.538Z,397.90
2022-12-20T13:31:54.374Z,407.00
2022-12-20T13:36:50.064Z,418.00
2022-12-20T13:41:50.364Z,417.50
2022-12-20T13:46:48.696Z,402.90
2022-12-20T13:51:48.046Z,415.90
2022-12-20T13:56:47.174Z,421.80
2022-12-20T14:01:46.678Z,402.00
2022-12-20T14:06:46.737Z,395.40
2022-12-20T14:11:46.046Z,405.90
2022-12-20T14:16:44.440Z,404.00
2022-12-20T14:21:45.613Z,362.10
2022-12-20T14:26:42.708Z,405.70
2022-12-20T14:31:41.081Z,428.10
2022-12-20T14:36:41.191Z,372.10
2022-12-20T14:41:40.564Z,322.70
2022-12-20T14:46:45.214Z,349.60
2022-12-20T14:51:39.866Z,280.10
2022-12-20T14:56:38.993Z,271.60
2022-12-20T15:01:43.602Z,270.70
2022-12-20T15:06:36.530Z,330.20
2022-12-20T15:11:35.788Z,350.10
2022-12-20T15:16:35.016Z,350.10
2022-12-20T15:21:35.189Z,342.80
2022-12-20T15:26:35.551Z,375.70
2022-12-20T15:31:34.131Z,419.60
2022-12-20T15:36:32.025Z,394.40
2022-12-20T15:41:32.322Z,395.60
2022-12-20T15:46:32.622Z,408.40
2022-12-20T15:51:29.900Z,416.60
2022-12-20T15:56:31.199Z,372.50
2022-12-20T16:01:29.143Z,409.40
2022-12-20T16:06:27.830Z,431.90
2022-12-20T16:11:27.127Z,456.40
2022-12-20T16:16:27.472Z,441.40
2022-12-20T16:21:26.697Z,449.00
2022-12-20T16:26:25.820Z,431.80
2022-12-20T16:31:24.197Z,441.10
2022-12-20T16:36:25.331Z,428.20
2022-12-20T16:41:24.649Z,429.00
2022-12-20T16:46:23.033Z,416.60
2022-12-20T16:51:20.187Z,388.70
2022-12-20T16:56:20.525Z,354.80
2022-12-20T17:01:21.945Z,358.90
2022-12-20T17:06:20.012Z,414.30
2022-12-20T17:11:18.315Z,403.20
2022-12-20T17:16:17.675Z,398.30
2022-12-20T17:21:16.814Z,403.70
2022-12-20T17:26:17.141Z,402.30
2022-12-20T17:31:15.495Z,408.70
2022-12-20T17:36:15.622Z,405.30
2022-12-20T17:41:13.959Z,406.30
2022-12-20T17:46:13.111Z,411.80
2022-12-20T17:51:11.263Z,346.90
2022-12-20T17:56:15.519Z,407.90
2022-12-20T18:01:10.672Z,412.50
2022-12-20T18:06:09.849Z,402.30
2022-12-20T18:11:10.195Z,409.90
2022-12-20T18:16:08.432Z,406.30
2022-12-20T18:21:07.651Z,390.60
2022-12-20T18:26:07.814Z,398.60
2022-12-20T18:31:06.948Z,396.70
2022-12-20T18:36:05.113Z,417.20
2022-12-20T18:41:04.269Z,443.90
2022-12-20T18:46:02.509Z,385.80
2022-12-20T18:51:03.673Z,410.30
2022-12-20T18:56:04.025Z,355.00
2022-12-20T19:01:01.480Z,398.30
2022-12-20T19:06:01.288Z,420.30
2022-12-20T19:10:59.913Z,406.80
2022-12-20T19:15:59.926Z,426.70
2022-12-20T19:21:00.046Z,428.10
2022-12-20T19:26:04.580Z,427.20
2022-12-20T19:30:56.832Z,421.30
2022-12-20T19:35:56.825Z,435.40
2022-12-20T19:40:55.221Z,435.40
2022-12-20T19:45:53.888Z,435.40
2022-12-20T19:50:55.937Z,435.40
2022-12-20T19:55:52.895Z,435.40
2022-12-20T20:00:51.180Z,435.40
2022-12-20T20:05:52.742Z,435.40
2022-12-20T20:10:51.988Z,435.40
2022-12-20T20:15:51.246Z,435.40
2022-12-20T20:20:51.267Z,435.40
2022-12-20T20:25:48.578Z,435.40
2022-12-20T20:30:46.989Z,435.40
2022-12-20T20:35:53.517Z,435.40
2022-12-20T20:40:47.610Z,435.40
2022-12-20T20:45:45.740Z,435.40
2022-12-20T20:50:44.893Z,435.40
2022-12-20T20:55:45.038Z,435.40
2022-12-20T21:00:43.257Z,435.40
2022-12-20T21:10:43.862Z,435.40
2022-12-20T21:15:41.100Z,435.40
2022-12-20T21:20:40.128Z,435.40
2022-12-20T21:25:39.307Z,435.40
2022-12-20T21:30:39.531Z,435.40
2022-12-20T21:35:37.735Z,435.40
2022-12-20T21:40:36.927Z,435.40
2022-12-20T21:45:37.092Z,435.40
2022-12-20T21:50:35.262Z,435.40
2022-12-20T21:55:35.444Z,435.40
2022-12-20T22:00:34.707Z,435.40
2022-12-20T22:05:34.745Z,435.40
2022-12-20T22:10:31.910Z,435.40
2022-12-20T22:15:31.114Z,435.40
2022-12-20T22:20:31.288Z,435.40
2022-12-20T22:25:29.444Z,435.40
2022-12-20T22:30:28.607Z,435.40
2022-12-20T22:35:26.799Z,435.40
2022-12-20T22:40:27.998Z,435.40
2022-12-20T22:45:26.191Z,435.40
2022-12-20T22:50:25.364Z,435.40
2022-12-20T22:55:24.500Z,435.40
2022-12-20T23:00:24.878Z,435.40
2022-12-20T23:05:23.055Z,435.40
2022-12-20T23:10:22.231Z,435.40
2022-12-20T23:15:22.399Z,435.40
2022-12-20T23:20:21.539Z,435.40
2022-12-20T23:25:19.684Z,435.40
2022-12-20T23:30:18.859Z,435.40
2022-12-20T23:35:18.026Z,435.40
2022-12-20T23:40:18.177Z,435.40
2022-12-20T23:45:17.322Z,435.40
2022-12-20T23:50:16.687Z,435.40
2022-12-20T23:55:14.834Z,435.40
